Currently 69°F in De Luz, California, USA
69°F
69°F / 52°F
2 mph NE
0.00"
Thursday, December 13, 2018 10:46 AM PST

De Luz, California Weather Summary
Last 36 Hours

Temperature Winds Hourly Humidity Dewpoint
Time Report Norm Report Norm Max Gusts Precip. Rpt. Norm Rpt. Norm Pressure
1,2Thu 10:46 AM  68.8°F  61°F  2 mph NE  1 mph  7 mph  0.00"  26%  52%  31°F  42°F  30.21"
Thu 10:01 AM  65.5°F  59°F  2 mph NE  1 mph  6 mph  0.00"  27%  55%  29°F  42°F  30.22"
Thu 09:01 AM  61.6°F  56°F  1 mph NE  calm  7 mph  0.00"  30%  60%  29°F  41°F  30.23"
Thu 08:01 AM  56.2°F  52°F  2 mph NE  calm  11 mph  0.00"  45%  64%  34°F  40°F  30.20"
Thu 07:00 AM  53.2°F  50°F  2 mph NE  calm  9 mph  0.00"  62%  65%  40°F  38°F  30.18"
3Thu 06:26 AM  51.9°F  50°F  2 mph N  calm  6 mph  ----  75%  65%  44°F  39°F  30.18"
Thu 06:00 AM  52.5°F  50°F  2 mph N  calm  11 mph  0.00"  75%  65%  44°F  38°F  30.17"
Thu 05:00 AM  53.9°F  51°F  3 mph NE  calm  10 mph  0.00"  72%  65%  45°F  39°F  30.18"
Thu 04:00 AM  53.1°F  51°F  2 mph NE  calm  10 mph  0.00"  71%  65%  44°F  39°F  30.16"
Thu 03:00 AM  53.9°F  51°F  2 mph NE  calm  7 mph  0.00"  71%  65%  44°F  39°F  30.15"
Thu 02:00 AM  53.8°F  51°F  1 mph NE  calm  7 mph  0.00"  76%  65%  46°F  40°F  30.15"
Thu 01:00 AM  54.4°F  52°F  1 mph NE  calm  6 mph  0.00"  78%  66%  47°F  40°F  30.15"
Thu 12:00 AM  54.4°F  52°F  1 mph NE  calm  8 mph  0.00"  81%  66%  48°F  41°F  30.15"
Wed 11:01 PM  52.9°F  52°F  2 mph NE  calm  8 mph  0.00"  91%  67%  50°F  41°F  30.15"
Wed 10:00 PM  53.2°F  53°F  1 mph N  calm  6 mph  0.00"  92%  67%  51°F  42°F  30.13"
Wed 09:00 PM  53.2°F  53°F  1 mph N  calm  4 mph  0.00"  95%  67%  52°F  42°F  30.14"
Wed 08:00 PM  52.5°F  53°F  calm  calm  none  0.00"  93%  68%  50°F  43°F  30.13"
Wed 07:00 PM  52.8°F  54°F  calm  calm  none  0.00"  91%  68%  50°F  43°F  30.13"
Wed 06:00 PM  54.7°F  55°F  calm  calm  3 mph  0.00"  88%  67%  51°F  44°F  30.10"
Wed 05:00 PM  57.6°F  57°F  calm  calm  5 mph  0.00"  81%  63%  52°F  44°F  30.08"
Wed 04:01 PM  61.3°F  61°F  calm  1 mph  5 mph  0.00"  70%  56%  51°F  44°F  30.09"
Wed 03:01 PM  63.1°F  63°F  calm  1 mph  7 mph  0.00"  70%  51%  53°F  44°F  30.08"
Wed 02:00 PM  63.5°F  65°F  2 mph S  1 mph  7 mph  0.00"  62%  48%  50°F  44°F  30.05"
Wed 01:00 PM  63.2°F  64°F  2 mph S  1 mph  11 mph  0.00"  62%  47%  49°F  43°F  30.04"
Wed 12:00 PM  60.9°F  64°F  1 mph S  1 mph  8 mph  0.00"  69%  48%  50°F  43°F  30.05"
Wed 11:00 AM  59.0°F  62°F  1 mph S  1 mph  5 mph  0.00"  72%  50%  50°F  43°F  30.07"
Wed 10:00 AM  56.0°F  59°F  1 mph S  calm  6 mph  0.00"  82%  54%  50°F  42°F  30.08"
Wed 09:00 AM  54.8°F  56°F  1 mph S  calm  2 mph  0.00"  69%  60%  44°F  42°F  30.08"
Wed 08:00 AM  49.2°F  53°F  calm  calm  1 mph  0.00"  80%  63%  43°F  40°F  30.08"
Wed 07:00 AM  46.1°F  51°F  calm  calm  2 mph  0.00"  82%  64%  41°F  39°F  30.08"
Wed 06:00 AM  45.7°F  51°F  calm  calm  2 mph  0.00"  78%  64%  39°F  39°F  30.06"
Wed 05:00 AM  46.1°F  51°F  calm  calm  2 mph  0.00"  81%  65%  40°F  39°F  30.04"
Wed 04:00 AM  47.9°F  51°F  calm  calm  5 mph  0.00"  80%  65%  42°F  39°F  30.03"
Wed 03:00 AM  47.0°F  51°F  2 mph S  calm  5 mph  0.00"  86%  65%  43°F  39°F  30.06"
Wed 02:00 AM  45.1°F  52°F  calm  calm  none  0.00"  92%  65%  43°F  40°F  30.07"
Wed 01:00 AM  47.4°F  52°F  calm  calm  none  0.00"  95%  65%  46°F  40°F  30.06"
Wed 12:00 AM  49.6°F  52°F  1 mph SW  calm  2 mph  0.00"  95%  65%  48°F  40°F  30.05"
Tue 11:00 PM  50.5°F  53°F  calm  calm  none  0.00"  95%  66%  49°F  41°F  30.06"

  1. Current weather data. No green row appears if the current weather data is also the high or low for the current day.
  2. High temperature for the current day.
  3. Low temperature for the current day.

The De Luz, California weather pages are a service of WeatherCurrents. De Luz is located west of the Temecula Valley and north of Fallbrook, on the Santa Rosa Plateau, in southwestern Riverside County, California.
Copyright ©Thu Dec 13 10:46:59 PST 2018  WeatherCurrents. All rights reserved. - Submit questions and comments - Privacy Policy

This page automatically refreshes every 10 minutes.